sensor_id;sensor_type;location;lat;lon;timestamp;P1;durP1;ratioP1;P2;durP2;ratioP2
51764;SDS011;37835;53.256;6.456;2022-11-15T00:01:06;35.17;;;23.48;;
51764;SDS011;37835;53.256;6.456;2022-11-15T00:03:38;34.63;;;25.23;;
51764;SDS011;37835;53.256;6.456;2022-11-15T00:06:04;35.65;;;25.48;;
51764;SDS011;37835;53.256;6.456;2022-11-15T00:08:31;37.95;;;25.52;;
51764;SDS011;37835;53.256;6.456;2022-11-15T00:10:58;34.10;;;24.13;;
51764;SDS011;37835;53.256;6.456;2022-11-15T00:13:25;38.85;;;25.95;;
51764;SDS011;37835;53.256;6.456;2022-11-15T00:15:51;36.15;;;25.15;;
51764;SDS011;37835;53.256;6.456;2022-11-15T00:18:17;35.72;;;24.83;;
51764;SDS011;37835;53.256;6.456;2022-11-15T00:20:43;37.75;;;26.10;;
51764;SDS011;37835;53.256;6.456;2022-11-15T00:23:09;36.90;;;25.30;;
51764;SDS011;37835;53.256;6.456;2022-11-15T00:25:35;34.67;;;25.77;;
51764;SDS011;37835;53.256;6.456;2022-11-15T00:28:01;34.17;;;24.42;;
51764;SDS011;37835;53.256;6.456;2022-11-15T00:30:27;37.50;;;24.85;;
51764;SDS011;37835;53.256;6.456;2022-11-15T00:32:53;37.25;;;25.17;;
51764;SDS011;37835;53.256;6.456;2022-11-15T00:35:19;36.28;;;25.35;;
51764;SDS011;37835;53.256;6.456;2022-11-15T00:37:45;37.90;;;25.13;;
51764;SDS011;37835;53.256;6.456;2022-11-15T00:40:12;37.20;;;24.77;;
51764;SDS011;37835;53.256;6.456;2022-11-15T00:42:38;38.40;;;25.58;;
51764;SDS011;37835;53.256;6.456;2022-11-15T00:45:04;35.35;;;24.92;;
51764;SDS011;37835;53.256;6.456;2022-11-15T00:47:30;40.35;;;26.63;;
51764;SDS011;37835;53.256;6.456;2022-11-15T00:49:55;34.83;;;25.42;;
51764;SDS011;37835;53.256;6.456;2022-11-15T00:52:21;36.92;;;24.85;;
51764;SDS011;37835;53.256;6.456;2022-11-15T00:54:46;35.95;;;25.45;;
51764;SDS011;37835;53.256;6.456;2022-11-15T00:57:12;39.35;;;24.00;;
51764;SDS011;37835;53.256;6.456;2022-11-15T00:59:37;34.45;;;23.88;;
51764;SDS011;37835;53.256;6.456;2022-11-15T01:02:03;34.05;;;22.67;;
51764;SDS011;37835;53.256;6.456;2022-11-15T01:04:29;33.67;;;23.30;;
51764;SDS011;37835;53.256;6.456;2022-11-15T01:06:54;35.55;;;23.92;;
51764;SDS011;37835;53.256;6.456;2022-11-15T01:09:20;35.60;;;23.50;;
51764;SDS011;37835;53.256;6.456;2022-11-15T01:11:45;34.38;;;23.83;;
51764;SDS011;37835;53.256;6.456;2022-11-15T01:14:11;32.67;;;23.15;;
51764;SDS011;37835;53.256;6.456;2022-11-15T01:16:36;33.00;;;23.15;;
51764;SDS011;37835;53.256;6.456;2022-11-15T01:19:02;32.42;;;23.35;;
51764;SDS011;37835;53.256;6.456;2022-11-15T01:21:28;32.13;;;23.02;;
51764;SDS011;37835;53.256;6.456;2022-11-15T01:23:54;33.58;;;23.90;;
51764;SDS011;37835;53.256;6.456;2022-11-15T01:26:21;33.08;;;23.13;;
51764;SDS011;37835;53.256;6.456;2022-11-15T01:28:47;33.72;;;24.00;;
51764;SDS011;37835;53.256;6.456;2022-11-15T01:31:14;30.73;;;22.65;;
51764;SDS011;37835;53.256;6.456;2022-11-15T01:33:41;30.63;;;23.13;;
51764;SDS011;37835;53.256;6.456;2022-11-15T01:36:07;33.38;;;23.88;;
51764;SDS011;37835;53.256;6.456;2022-11-15T01:38:36;34.70;;;25.02;;
51764;SDS011;37835;53.256;6.456;2022-11-15T01:41:02;33.85;;;24.80;;
51764;SDS011;37835;53.256;6.456;2022-11-15T01:43:29;35.47;;;25.48;;
51764;SDS011;37835;53.256;6.456;2022-11-15T01:46:01;37.10;;;26.27;;
51764;SDS011;37835;53.256;6.456;2022-11-15T01:48:34;36.10;;;25.88;;
51764;SDS011;37835;53.256;6.456;2022-11-15T01:51:01;34.10;;;25.23;;
51764;SDS011;37835;53.256;6.456;2022-11-15T01:53:34;37.05;;;26.10;;
51764;SDS011;37835;53.256;6.456;2022-11-15T01:56:04;35.33;;;26.30;;
51764;SDS011;37835;53.256;6.456;2022-11-15T01:58:31;36.35;;;27.25;;
51764;SDS011;37835;53.256;6.456;2022-11-15T02:00:58;37.35;;;25.70;;
51764;SDS011;37835;53.256;6.456;2022-11-15T02:03:25;36.50;;;26.58;;
51764;SDS011;37835;53.256;6.456;2022-11-15T02:05:56;40.08;;;26.63;;
51764;SDS011;37835;53.256;6.456;2022-11-15T02:08:22;42.63;;;27.98;;
51764;SDS011;37835;53.256;6.456;2022-11-15T02:10:48;37.35;;;26.42;;
51764;SDS011;37835;53.256;6.456;2022-11-15T02:13:14;36.65;;;25.70;;
51764;SDS011;37835;53.256;6.456;2022-11-15T02:15:44;40.13;;;27.25;;
51764;SDS011;37835;53.256;6.456;2022-11-15T02:18:40;37.53;;;25.85;;
51764;SDS011;37835;53.256;6.456;2022-11-15T02:29:04;41.50;;;25.20;;
51764;SDS011;37835;53.256;6.456;2022-11-15T02:31:48;36.45;;;25.30;;
51764;SDS011;37835;53.256;6.456;2022-11-15T02:34:28;41.40;;;23.85;;
51764;SDS011;37835;53.256;6.456;2022-11-15T02:37:08;31.63;;;23.42;;
51764;SDS011;37835;53.256;6.456;2022-11-15T02:42:18;33.08;;;23.02;;
51764;SDS011;37835;53.256;6.456;2022-11-15T02:45:07;32.05;;;22.17;;
51764;SDS011;37835;53.256;6.456;2022-11-15T02:47:39;32.78;;;22.05;;
51764;SDS011;37835;53.256;6.456;2022-11-15T02:50:10;35.88;;;24.02;;
51764;SDS011;37835;53.256;6.456;2022-11-15T02:52:38;34.35;;;22.98;;
51764;SDS011;37835;53.256;6.456;2022-11-15T02:55:03;40.78;;;23.75;;
51764;SDS011;37835;53.256;6.456;2022-11-15T02:57:44;36.58;;;22.85;;
51764;SDS011;37835;53.256;6.456;2022-11-15T03:00:19;35.45;;;23.65;;
51764;SDS011;37835;53.256;6.456;2022-11-15T03:08:50;40.42;;;23.55;;
51764;SDS011;37835;53.256;6.456;2022-11-15T03:11:22;34.47;;;23.05;;
51764;SDS011;37835;53.256;6.456;2022-11-15T03:16:24;41.75;;;25.80;;
51764;SDS011;37835;53.256;6.456;2022-11-15T03:18:52;49.10;;;25.67;;
51764;SDS011;37835;53.256;6.456;2022-11-15T03:21:32;43.65;;;25.38;;
51764;SDS011;37835;53.256;6.456;2022-11-15T03:24:00;44.10;;;25.33;;
51764;SDS011;37835;53.256;6.456;2022-11-15T03:26:29;41.53;;;25.05;;
51764;SDS011;37835;53.256;6.456;2022-11-15T03:28:59;42.63;;;25.20;;
51764;SDS011;37835;53.256;6.456;2022-11-15T03:31:31;44.50;;;25.58;;
51764;SDS011;37835;53.256;6.456;2022-11-15T03:34:13;45.47;;;24.30;;
51764;SDS011;37835;53.256;6.456;2022-11-15T03:36:51;43.38;;;24.42;;
51764;SDS011;37835;53.256;6.456;2022-11-15T03:39:17;45.92;;;26.02;;
51764;SDS011;37835;53.256;6.456;2022-11-15T03:44:36;45.40;;;25.83;;
51764;SDS011;37835;53.256;6.456;2022-11-15T03:47:26;44.92;;;25.42;;
51764;SDS011;37835;53.256;6.456;2022-11-15T03:50:01;49.42;;;26.85;;
51764;SDS011;37835;53.256;6.456;2022-11-15T03:52:31;45.97;;;25.40;;
51764;SDS011;37835;53.256;6.456;2022-11-15T03:54:59;44.08;;;26.15;;
51764;SDS011;37835;53.256;6.456;2022-11-15T03:57:27;42.13;;;25.10;;
51764;SDS011;37835;53.256;6.456;2022-11-15T03:59:53;44.45;;;24.95;;
51764;SDS011;37835;53.256;6.456;2022-11-15T04:02:18;50.17;;;27.08;;
51764;SDS011;37835;53.256;6.456;2022-11-15T04:04:44;52.80;;;26.42;;
51764;SDS011;37835;53.256;6.456;2022-11-15T04:07:09;50.97;;;25.45;;
51764;SDS011;37835;53.256;6.456;2022-11-15T04:09:35;49.90;;;24.58;;
51764;SDS011;37835;53.256;6.456;2022-11-15T04:12:20;50.33;;;25.30;;
51764;SDS011;37835;53.256;6.456;2022-11-15T04:14:55;50.20;;;26.00;;
51764;SDS011;37835;53.256;6.456;2022-11-15T04:17:41;48.70;;;25.70;;
51764;SDS011;37835;53.256;6.456;2022-11-15T04:20:09;51.65;;;26.17;;
51764;SDS011;37835;53.256;6.456;2022-11-15T04:23:14;54.50;;;27.13;;
51764;SDS011;37835;53.256;6.456;2022-11-15T04:26:03;49.72;;;26.65;;
51764;SDS011;37835;53.256;6.456;2022-11-15T04:28:49;52.45;;;27.13;;
51764;SDS011;37835;53.256;6.456;2022-11-15T04:31:34;50.47;;;26.55;;
51764;SDS011;37835;53.256;6.456;2022-11-15T04:33:59;46.42;;;26.15;;
51764;SDS011;37835;53.256;6.456;2022-11-15T04:36:25;51.85;;;26.48;;
51764;SDS011;37835;53.256;6.456;2022-11-15T04:39:09;57.70;;;27.30;;
51764;SDS011;37835;53.256;6.456;2022-11-15T04:41:35;47.67;;;25.85;;
51764;SDS011;37835;53.256;6.456;2022-11-15T04:44:00;57.58;;;28.45;;
51764;SDS011;37835;53.256;6.456;2022-11-15T04:46:26;50.70;;;27.30;;
51764;SDS011;37835;53.256;6.456;2022-11-15T04:48:52;51.38;;;25.90;;
51764;SDS011;37835;53.256;6.456;2022-11-15T04:51:18;47.53;;;25.25;;
51764;SDS011;37835;53.256;6.456;2022-11-15T04:53:44;50.72;;;27.02;;
51764;SDS011;37835;53.256;6.456;2022-11-15T04:56:10;48.55;;;26.88;;
51764;SDS011;37835;53.256;6.456;2022-11-15T04:58:35;50.00;;;26.50;;
51764;SDS011;37835;53.256;6.456;2022-11-15T05:01:07;52.60;;;26.88;;
51764;SDS011;37835;53.256;6.456;2022-11-15T05:03:34;54.50;;;26.90;;
51764;SDS011;37835;53.256;6.456;2022-11-15T05:06:18;53.97;;;27.85;;
51764;SDS011;37835;53.256;6.456;2022-11-15T05:08:43;54.70;;;27.75;;
51764;SDS011;37835;53.256;6.456;2022-11-15T05:11:09;60.10;;;28.67;;
51764;SDS011;37835;53.256;6.456;2022-11-15T05:13:35;59.03;;;29.25;;
51764;SDS011;37835;53.256;6.456;2022-11-15T05:16:00;58.58;;;29.55;;
51764;SDS011;37835;53.256;6.456;2022-11-15T05:18:26;66.75;;;29.75;;
51764;SDS011;37835;53.256;6.456;2022-11-15T05:20:51;67.28;;;31.40;;
51764;SDS011;37835;53.256;6.456;2022-11-15T05:23:17;64.50;;;31.35;;
51764;SDS011;37835;53.256;6.456;2022-11-15T05:25:42;63.70;;;31.40;;
51764;SDS011;37835;53.256;6.456;2022-11-15T05:28:08;66.82;;;31.50;;
51764;SDS011;37835;53.256;6.456;2022-11-15T05:30:33;70.15;;;32.38;;
51764;SDS011;37835;53.256;6.456;2022-11-15T05:32:59;77.35;;;32.67;;
51764;SDS011;37835;53.256;6.456;2022-11-15T05:35:46;69.35;;;33.35;;
51764;SDS011;37835;53.256;6.456;2022-11-15T05:38:15;69.43;;;33.38;;
51764;SDS011;37835;53.256;6.456;2022-11-15T05:40:41;71.35;;;33.67;;
51764;SDS011;37835;53.256;6.456;2022-11-15T05:43:06;82.85;;;35.78;;
51764;SDS011;37835;53.256;6.456;2022-11-15T05:45:32;76.95;;;33.83;;
51764;SDS011;37835;53.256;6.456;2022-11-15T05:47:59;81.43;;;36.97;;
51764;SDS011;37835;53.256;6.456;2022-11-15T05:50:26;84.32;;;36.65;;
51764;SDS011;37835;53.256;6.456;2022-11-15T05:52:52;89.95;;;38.20;;
51764;SDS011;37835;53.256;6.456;2022-11-15T05:55:19;88.07;;;36.42;;
51764;SDS011;37835;53.256;6.456;2022-11-15T05:57:45;84.93;;;37.03;;
51764;SDS011;37835;53.256;6.456;2022-11-15T06:00:11;86.20;;;37.15;;
51764;SDS011;37835;53.256;6.456;2022-11-15T06:02:37;93.72;;;37.08;;
51764;SDS011;37835;53.256;6.456;2022-11-15T06:05:02;97.90;;;38.47;;
51764;SDS011;37835;53.256;6.456;2022-11-15T06:07:28;93.05;;;38.10;;
51764;SDS011;37835;53.256;6.456;2022-11-15T06:09:54;100.60;;;39.17;;
51764;SDS011;37835;53.256;6.456;2022-11-15T06:12:20;97.20;;;40.17;;
51764;SDS011;37835;53.256;6.456;2022-11-15T06:14:46;92.93;;;39.83;;
51764;SDS011;37835;53.256;6.456;2022-11-15T06:17:11;99.18;;;40.65;;
51764;SDS011;37835;53.256;6.456;2022-11-15T06:19:37;101.28;;;40.47;;
51764;SDS011;37835;53.256;6.456;2022-11-15T06:22:02;98.57;;;39.85;;
51764;SDS011;37835;53.256;6.456;2022-11-15T06:24:28;99.65;;;41.95;;
51764;SDS011;37835;53.256;6.456;2022-11-15T06:26:53;104.50;;;40.53;;
51764;SDS011;37835;53.256;6.456;2022-11-15T06:29:20;103.05;;;40.63;;
51764;SDS011;37835;53.256;6.456;2022-11-15T06:31:45;109.95;;;42.78;;
51764;SDS011;37835;53.256;6.456;2022-11-15T06:34:11;104.50;;;41.60;;
51764;SDS011;37835;53.256;6.456;2022-11-15T06:36:36;103.95;;;42.05;;
51764;SDS011;37835;53.256;6.456;2022-11-15T06:39:03;98.10;;;40.40;;
51764;SDS011;37835;53.256;6.456;2022-11-15T06:41:29;100.63;;;42.45;;
51764;SDS011;37835;53.256;6.456;2022-11-15T06:43:55;113.22;;;41.65;;
51764;SDS011;37835;53.256;6.456;2022-11-15T06:46:22;103.50;;;43.22;;
51764;SDS011;37835;53.256;6.456;2022-11-15T06:48:50;99.70;;;43.70;;
51764;SDS011;37835;53.256;6.456;2022-11-15T06:51:16;106.03;;;43.08;;
51764;SDS011;37835;53.256;6.456;2022-11-15T06:53:42;108.00;;;43.03;;
51764;SDS011;37835;53.256;6.456;2022-11-15T06:56:07;106.78;;;42.45;;
51764;SDS011;37835;53.256;6.456;2022-11-15T06:58:34;105.30;;;43.00;;
51764;SDS011;37835;53.256;6.456;2022-11-15T07:01:01;105.18;;;43.65;;
51764;SDS011;37835;53.256;6.456;2022-11-15T07:03:28;107.68;;;43.63;;
51764;SDS011;37835;53.256;6.456;2022-11-15T07:05:55;101.45;;;43.03;;
51764;SDS011;37835;53.256;6.456;2022-11-15T07:08:22;107.70;;;44.33;;
51764;SDS011;37835;53.256;6.456;2022-11-15T07:10:48;98.35;;;42.88;;
51764;SDS011;37835;53.256;6.456;2022-11-15T07:13:14;99.38;;;43.17;;
51764;SDS011;37835;53.256;6.456;2022-11-15T07:15:39;99.25;;;41.78;;
51764;SDS011;37835;53.256;6.456;2022-11-15T07:18:05;98.28;;;43.05;;
51764;SDS011;37835;53.256;6.456;2022-11-15T07:20:30;96.72;;;42.72;;
51764;SDS011;37835;53.256;6.456;2022-11-15T07:23:00;96.00;;;43.78;;
51764;SDS011;37835;53.256;6.456;2022-11-15T07:25:26;103.70;;;43.33;;
51764;SDS011;37835;53.256;6.456;2022-11-15T07:27:56;94.35;;;43.22;;
51764;SDS011;37835;53.256;6.456;2022-11-15T07:30:22;102.50;;;44.75;;
51764;SDS011;37835;53.256;6.456;2022-11-15T07:32:52;93.55;;;43.08;;
51764;SDS011;37835;53.256;6.456;2022-11-15T07:35:18;99.68;;;42.03;;
51764;SDS011;37835;53.256;6.456;2022-11-15T07:37:44;107.25;;;44.60;;
51764;SDS011;37835;53.256;6.456;2022-11-15T07:40:17;110.93;;;44.80;;
51764;SDS011;37835;53.256;6.456;2022-11-15T07:42:42;101.30;;;42.88;;
51764;SDS011;37835;53.256;6.456;2022-11-15T07:45:17;101.05;;;43.10;;
51764;SDS011;37835;53.256;6.456;2022-11-15T07:47:46;98.60;;;42.05;;
51764;SDS011;37835;53.256;6.456;2022-11-15T07:50:12;94.18;;;42.58;;
51764;SDS011;37835;53.256;6.456;2022-11-15T07:52:37;90.38;;;42.22;;
51764;SDS011;37835;53.256;6.456;2022-11-15T07:55:03;98.05;;;42.88;;
51764;SDS011;37835;53.256;6.456;2022-11-15T07:57:29;94.57;;;43.38;;
51764;SDS011;37835;53.256;6.456;2022-11-15T07:59:55;94.20;;;42.72;;
51764;SDS011;37835;53.256;6.456;2022-11-15T08:02:21;93.22;;;41.80;;
51764;SDS011;37835;53.256;6.456;2022-11-15T08:04:46;91.50;;;42.38;;
51764;SDS011;37835;53.256;6.456;2022-11-15T08:07:12;86.28;;;40.67;;
51764;SDS011;37835;53.256;6.456;2022-11-15T08:09:38;82.97;;;38.83;;
51764;SDS011;37835;53.256;6.456;2022-11-15T08:12:03;93.53;;;42.08;;
51764;SDS011;37835;53.256;6.456;2022-11-15T08:14:29;84.03;;;40.75;;
51764;SDS011;37835;53.256;6.456;2022-11-15T08:16:55;81.15;;;38.67;;
51764;SDS011;37835;53.256;6.456;2022-11-15T08:19:20;78.55;;;39.40;;
51764;SDS011;37835;53.256;6.456;2022-11-15T08:21:46;87.65;;;39.85;;
51764;SDS011;37835;53.256;6.456;2022-11-15T08:24:12;77.65;;;38.38;;
51764;SDS011;37835;53.256;6.456;2022-11-15T08:26:37;82.97;;;39.15;;
51764;SDS011;37835;53.256;6.456;2022-11-15T08:29:04;74.55;;;37.30;;
51764;SDS011;37835;53.256;6.456;2022-11-15T08:31:30;70.60;;;37.92;;
51764;SDS011;37835;53.256;6.456;2022-11-15T08:33:56;72.05;;;37.03;;
51764;SDS011;37835;53.256;6.456;2022-11-15T08:36:21;71.05;;;37.55;;
51764;SDS011;37835;53.256;6.456;2022-11-15T08:38:47;68.65;;;35.92;;
51764;SDS011;37835;53.256;6.456;2022-11-15T08:41:13;73.95;;;36.83;;
51764;SDS011;37835;53.256;6.456;2022-11-15T08:43:47;70.75;;;36.20;;
51764;SDS011;37835;53.256;6.456;2022-11-15T08:46:13;66.75;;;35.65;;
51764;SDS011;37835;53.256;6.456;2022-11-15T08:48:39;69.35;;;35.45;;
51764;SDS011;37835;53.256;6.456;2022-11-15T08:51:04;69.97;;;35.90;;
51764;SDS011;37835;53.256;6.456;2022-11-15T08:53:30;66.28;;;34.95;;
51764;SDS011;37835;53.256;6.456;2022-11-15T08:55:56;63.45;;;34.92;;
51764;SDS011;37835;53.256;6.456;2022-11-15T08:58:22;58.80;;;34.45;;
51764;SDS011;37835;53.256;6.456;2022-11-15T09:00:47;60.83;;;34.35;;
51764;SDS011;37835;53.256;6.456;2022-11-15T09:03:13;61.95;;;33.50;;
51764;SDS011;37835;53.256;6.456;2022-11-15T09:05:38;57.17;;;34.15;;
51764;SDS011;37835;53.256;6.456;2022-11-15T09:08:04;53.78;;;32.85;;
51764;SDS011;37835;53.256;6.456;2022-11-15T09:10:30;58.42;;;33.53;;
51764;SDS011;37835;53.256;6.456;2022-11-15T09:12:58;55.65;;;31.63;;
51764;SDS011;37835;53.256;6.456;2022-11-15T09:15:24;54.30;;;31.17;;
51764;SDS011;37835;53.256;6.456;2022-11-15T09:17:50;54.60;;;30.38;;
51764;SDS011;37835;53.256;6.456;2022-11-15T09:20:15;50.30;;;30.52;;
51764;SDS011;37835;53.256;6.456;2022-11-15T09:22:41;48.00;;;29.75;;
51764;SDS011;37835;53.256;6.456;2022-11-15T09:25:07;48.28;;;28.75;;
51764;SDS011;37835;53.256;6.456;2022-11-15T09:27:33;43.00;;;27.60;;
51764;SDS011;37835;53.256;6.456;2022-11-15T09:29:58;42.58;;;27.40;;
51764;SDS011;37835;53.256;6.456;2022-11-15T09:32:27;42.60;;;27.20;;
51764;SDS011;37835;53.256;6.456;2022-11-15T09:34:55;41.67;;;26.88;;
51764;SDS011;37835;53.256;6.456;2022-11-15T09:37:20;46.78;;;27.30;;
51764;SDS011;37835;53.256;6.456;2022-11-15T09:39:46;44.38;;;26.35;;
51764;SDS011;37835;53.256;6.456;2022-11-15T09:45:16;39.42;;;25.25;;
51764;SDS011;37835;53.256;6.456;2022-11-15T09:47:56;36.53;;;23.92;;
51764;SDS011;37835;53.256;6.456;2022-11-15T09:50:43;37.85;;;22.92;;
51764;SDS011;37835;53.256;6.456;2022-11-15T09:53:14;37.20;;;23.35;;
51764;SDS011;37835;53.256;6.456;2022-11-15T09:56:00;36.58;;;23.58;;
51764;SDS011;37835;53.256;6.456;2022-11-15T09:58:33;38.60;;;22.42;;
51764;SDS011;37835;53.256;6.456;2022-11-15T10:01:07;35.78;;;22.73;;
51764;SDS011;37835;53.256;6.456;2022-11-15T10:03:42;37.88;;;23.02;;
51764;SDS011;37835;53.256;6.456;2022-11-15T10:06:14;39.15;;;23.50;;
51764;SDS011;37835;53.256;6.456;2022-11-15T10:09:24;35.72;;;22.30;;
51764;SDS011;37835;53.256;6.456;2022-11-15T10:11:54;31.67;;;20.92;;
51764;SDS011;37835;53.256;6.456;2022-11-15T10:14:20;31.50;;;21.88;;
51764;SDS011;37835;53.256;6.456;2022-11-15T10:22:38;29.92;;;19.52;;
51764;SDS011;37835;53.256;6.456;2022-11-15T10:30:49;29.75;;;20.00;;
51764;SDS011;37835;53.256;6.456;2022-11-15T10:33:25;35.00;;;20.08;;
51764;SDS011;37835;53.256;6.456;2022-11-15T10:41:18;32.70;;;19.02;;
51764;SDS011;37835;53.256;6.456;2022-11-15T10:43:46;28.92;;;18.85;;
51764;SDS011;37835;53.256;6.456;2022-11-15T10:46:42;28.73;;;18.27;;
51764;SDS011;37835;53.256;6.456;2022-11-15T10:49:15;33.38;;;19.45;;
51764;SDS011;37835;53.256;6.456;2022-11-15T10:51:55;31.35;;;19.50;;
51764;SDS011;37835;53.256;6.456;2022-11-15T10:57:04;30.92;;;18.25;;
51764;SDS011;37835;53.256;6.456;2022-11-15T10:59:46;26.35;;;17.80;;
51764;SDS011;37835;53.256;6.456;2022-11-15T11:02:27;29.15;;;17.08;;
51764;SDS011;37835;53.256;6.456;2022-11-15T11:04:59;25.52;;;17.48;;
51764;SDS011;37835;53.256;6.456;2022-11-15T11:07:27;28.27;;;18.17;;
51764;SDS011;37835;53.256;6.456;2022-11-15T11:09:59;23.88;;;16.98;;
51764;SDS011;37835;53.256;6.456;2022-11-15T11:12:47;26.60;;;16.48;;
51764;SDS011;37835;53.256;6.456;2022-11-15T11:15:13;22.80;;;16.88;;
51764;SDS011;37835;53.256;6.456;2022-11-15T11:20:36;22.65;;;16.23;;
51764;SDS011;37835;53.256;6.456;2022-11-15T11:33:07;24.95;;;14.75;;
51764;SDS011;37835;53.256;6.456;2022-11-15T11:35:24;23.88;;;14.18;;
51764;SDS011;37835;53.256;6.456;2022-11-15T11:40:40;20.40;;;14.48;;
51764;SDS011;37835;53.256;6.456;2022-11-15T11:43:36;23.25;;;14.57;;
51764;SDS011;37835;53.256;6.456;2022-11-15T11:46:26;20.75;;;14.13;;
51764;SDS011;37835;53.256;6.456;2022-11-15T11:49:09;25.98;;;15.13;;
51764;SDS011;37835;53.256;6.456;2022-11-15T11:58:17;17.38;;;12.02;;
51764;SDS011;37835;53.256;6.456;2022-11-15T12:03:45;14.75;;;8.50;;
51764;SDS011;37835;53.256;6.456;2022-11-15T12:12:02;10.40;;;5.95;;
51764;SDS011;37835;53.256;6.456;2022-11-15T12:14:33;9.50;;;5.47;;
51764;SDS011;37835;53.256;6.456;2022-11-15T12:17:17;8.40;;;4.72;;
51764;SDS011;37835;53.256;6.456;2022-11-15T12:19:47;6.53;;;4.30;;
51764;SDS011;37835;53.256;6.456;2022-11-15T12:22:19;5.50;;;3.60;;
51764;SDS011;37835;53.256;6.456;2022-11-15T12:27:40;7.68;;;3.70;;
51764;SDS011;37835;53.256;6.456;2022-11-15T12:30:17;7.75;;;3.33;;
51764;SDS011;37835;53.256;6.456;2022-11-15T12:32:49;6.25;;;3.53;;
51764;SDS011;37835;53.256;6.456;2022-11-15T12:35:30;5.97;;;3.08;;
51764;SDS011;37835;53.256;6.456;2022-11-15T12:38:00;5.03;;;3.08;;
51764;SDS011;37835;53.256;6.456;2022-11-15T12:40:34;5.72;;;3.20;;
51764;SDS011;37835;53.256;6.456;2022-11-15T12:44:09;6.80;;;2.55;;
51764;SDS011;37835;53.256;6.456;2022-11-15T12:46:59;5.22;;;2.30;;
51764;SDS011;37835;53.256;6.456;2022-11-15T12:59:57;9.65;;;2.40;;
51764;SDS011;37835;53.256;6.456;2022-11-15T13:04:56;3.78;;;1.95;;
51764;SDS011;37835;53.256;6.456;2022-11-15T13:17:42;12.27;;;3.22;;
51764;SDS011;37835;53.256;6.456;2022-11-15T13:22:44;6.72;;;2.88;;
51764;SDS011;37835;53.256;6.456;2022-11-15T13:30:58;6.78;;;2.92;;
51764;SDS011;37835;53.256;6.456;2022-11-15T13:33:36;7.82;;;2.78;;
51764;SDS011;37835;53.256;6.456;2022-11-15T13:36:05;3.97;;;2.58;;
51764;SDS011;37835;53.256;6.456;2022-11-15T13:38:35;5.03;;;2.97;;
51764;SDS011;37835;53.256;6.456;2022-11-15T13:41:22;5.35;;;3.20;;
51764;SDS011;37835;53.256;6.456;2022-11-15T13:43:50;7.68;;;3.63;;
51764;SDS011;37835;53.256;6.456;2022-11-15T13:46:24;8.32;;;3.75;;
51764;SDS011;37835;53.256;6.456;2022-11-15T13:48:56;9.75;;;4.30;;
51764;SDS011;37835;53.256;6.456;2022-11-15T13:54:15;10.55;;;4.68;;
51764;SDS011;37835;53.256;6.456;2022-11-15T13:59:34;7.05;;;4.07;;
51764;SDS011;37835;53.256;6.456;2022-11-15T14:02:12;8.45;;;4.50;;
51764;SDS011;37835;53.256;6.456;2022-11-15T14:04:50;6.38;;;3.90;;
51764;SDS011;37835;53.256;6.456;2022-11-15T14:07:19;6.60;;;4.07;;
51764;SDS011;37835;53.256;6.456;2022-11-15T14:09:47;6.13;;;3.97;;
51764;SDS011;37835;53.256;6.456;2022-11-15T14:12:49;6.57;;;4.28;;
51764;SDS011;37835;53.256;6.456;2022-11-15T14:15:34;6.27;;;4.73;;
51764;SDS011;37835;53.256;6.456;2022-11-15T14:18:01;13.13;;;4.60;;
51764;SDS011;37835;53.256;6.456;2022-11-15T14:23:02;4.93;;;4.03;;
51764;SDS011;37835;53.256;6.456;2022-11-15T14:25:56;8.68;;;3.65;;
51764;SDS011;37835;53.256;6.456;2022-11-15T14:30:48;6.00;;;3.92;;
51764;SDS011;37835;53.256;6.456;2022-11-15T14:33:21;4.78;;;3.75;;
51764;SDS011;37835;53.256;6.456;2022-11-15T14:35:49;6.50;;;3.80;;
51764;SDS011;37835;53.256;6.456;2022-11-15T14:38:15;5.57;;;3.42;;
51764;SDS011;37835;53.256;6.456;2022-11-15T14:40:42;5.20;;;3.15;;
51764;SDS011;37835;53.256;6.456;2022-11-15T14:43:11;4.93;;;3.28;;
51764;SDS011;37835;53.256;6.456;2022-11-15T14:45:37;6.68;;;3.75;;
51764;SDS011;37835;53.256;6.456;2022-11-15T14:48:04;5.80;;;3.47;;
51764;SDS011;37835;53.256;6.456;2022-11-15T14:50:29;6.57;;;3.80;;
51764;SDS011;37835;53.256;6.456;2022-11-15T14:52:56;8.52;;;4.13;;
51764;SDS011;37835;53.256;6.456;2022-11-15T14:55:26;5.68;;;3.38;;
51764;SDS011;37835;53.256;6.456;2022-11-15T14:57:54;5.75;;;3.38;;
51764;SDS011;37835;53.256;6.456;2022-11-15T15:00:20;4.35;;;3.15;;
51764;SDS011;37835;53.256;6.456;2022-11-15T15:02:47;4.47;;;3.60;;
51764;SDS011;37835;53.256;6.456;2022-11-15T15:05:18;6.68;;;2.60;;
51764;SDS011;37835;53.256;6.456;2022-11-15T15:07:48;3.80;;;1.70;;
51764;SDS011;37835;53.256;6.456;2022-11-15T15:10:15;5.72;;;1.92;;
51764;SDS011;37835;53.256;6.456;2022-11-15T15:12:41;6.47;;;2.58;;
51764;SDS011;37835;53.256;6.456;2022-11-15T15:15:14;4.90;;;2.17;;
51764;SDS011;37835;53.256;6.456;2022-11-15T15:17:42;5.20;;;2.60;;
51764;SDS011;37835;53.256;6.456;2022-11-15T15:20:08;5.00;;;3.60;;
51764;SDS011;37835;53.256;6.456;2022-11-15T15:22:35;7.60;;;5.25;;
51764;SDS011;37835;53.256;6.456;2022-11-15T15:25:02;5.78;;;4.43;;
51764;SDS011;37835;53.256;6.456;2022-11-15T15:27:29;6.70;;;3.80;;
51764;SDS011;37835;53.256;6.456;2022-11-15T15:29:55;3.45;;;3.03;;
51764;SDS011;37835;53.256;6.456;2022-11-15T15:32:20;5.10;;;3.13;;
51764;SDS011;37835;53.256;6.456;2022-11-15T15:34:46;5.43;;;3.70;;
51764;SDS011;37835;53.256;6.456;2022-11-15T15:39:49;5.70;;;3.20;;
51764;SDS011;37835;53.256;6.456;2022-11-15T15:42:18;5.57;;;2.90;;
51764;SDS011;37835;53.256;6.456;2022-11-15T15:44:44;5.97;;;3.35;;
51764;SDS011;37835;53.256;6.456;2022-11-15T15:47:15;3.90;;;3.08;;
51764;SDS011;37835;53.256;6.456;2022-11-15T15:49:43;5.55;;;2.88;;
51764;SDS011;37835;53.256;6.456;2022-11-15T15:52:09;6.57;;;3.70;;
51764;SDS011;37835;53.256;6.456;2022-11-15T15:54:36;5.18;;;3.63;;
51764;SDS011;37835;53.256;6.456;2022-11-15T15:57:02;8.55;;;3.88;;
51764;SDS011;37835;53.256;6.456;2022-11-15T15:59:28;5.15;;;3.55;;
51764;SDS011;37835;53.256;6.456;2022-11-15T16:01:54;8.30;;;3.70;;
51764;SDS011;37835;53.256;6.456;2022-11-15T16:04:19;6.15;;;3.83;;
51764;SDS011;37835;53.256;6.456;2022-11-15T16:06:45;4.60;;;4.13;;
51764;SDS011;37835;53.256;6.456;2022-11-15T16:09:15;5.20;;;3.97;;
51764;SDS011;37835;53.256;6.456;2022-11-15T16:11:43;4.85;;;4.32;;
51764;SDS011;37835;53.256;6.456;2022-11-15T16:14:09;6.70;;;4.72;;
51764;SDS011;37835;53.256;6.456;2022-11-15T16:16:36;5.60;;;4.57;;
51764;SDS011;37835;53.256;6.456;2022-11-15T16:19:01;5.93;;;4.50;;
51764;SDS011;37835;53.256;6.456;2022-11-15T16:21:28;6.13;;;5.35;;
51764;SDS011;37835;53.256;6.456;2022-11-15T16:23:53;7.25;;;4.68;;
51764;SDS011;37835;53.256;6.456;2022-11-15T16:26:20;8.20;;;5.28;;
51764;SDS011;37835;53.256;6.456;2022-11-15T16:28:50;8.20;;;4.73;;
51764;SDS011;37835;53.256;6.456;2022-11-15T16:31:16;7.68;;;4.78;;
51764;SDS011;37835;53.256;6.456;2022-11-15T16:33:43;10.05;;;5.18;;
51764;SDS011;37835;53.256;6.456;2022-11-15T16:36:20;6.57;;;5.07;;
51764;SDS011;37835;53.256;6.456;2022-11-15T16:38:47;5.30;;;4.80;;
51764;SDS011;37835;53.256;6.456;2022-11-15T16:41:12;7.82;;;4.88;;
51764;SDS011;37835;53.256;6.456;2022-11-15T16:43:38;5.63;;;5.07;;